sensor_id;sensor_type;location;lat;lon;timestamp;P1;durP1;ratioP1;P2;durP2;ratioP2
13933;SDS011;7039;52.168;9.866;2023-07-08T00:01:03;8.40;;;3.50;;
13933;SDS011;7039;52.168;9.866;2023-07-08T00:04:01;3.77;;;2.90;;
13933;SDS011;7039;52.168;9.866;2023-07-08T00:06:29;6.40;;;3.80;;
13933;SDS011;7039;52.168;9.866;2023-07-08T00:08:56;6.93;;;3.80;;
13933;SDS011;7039;52.168;9.866;2023-07-08T00:11:22;4.17;;;3.13;;
13933;SDS011;7039;52.168;9.866;2023-07-08T00:13:50;6.60;;;3.43;;
13933;SDS011;7039;52.168;9.866;2023-07-08T00:16:17;4.53;;;3.40;;
13933;SDS011;7039;52.168;9.866;2023-07-08T00:18:44;3.60;;;3.03;;
13933;SDS011;7039;52.168;9.866;2023-07-08T00:21:11;6.90;;;3.70;;
13933;SDS011;7039;52.168;9.866;2023-07-08T00:23:40;6.50;;;3.60;;
13933;SDS011;7039;52.168;9.866;2023-07-08T00:26:21;6.37;;;3.90;;
13933;SDS011;7039;52.168;9.866;2023-07-08T00:28:50;6.07;;;3.63;;
13933;SDS011;7039;52.168;9.866;2023-07-08T00:31:17;4.97;;;3.50;;
13933;SDS011;7039;52.168;9.866;2023-07-08T00:33:48;6.00;;;3.53;;
13933;SDS011;7039;52.168;9.866;2023-07-08T00:36:15;4.97;;;3.67;;
13933;SDS011;7039;52.168;9.866;2023-07-08T00:38:43;5.17;;;3.30;;
13933;SDS011;7039;52.168;9.866;2023-07-08T00:41:11;7.90;;;4.07;;
13933;SDS011;7039;52.168;9.866;2023-07-08T00:43:40;6.47;;;3.83;;
13933;SDS011;7039;52.168;9.866;2023-07-08T00:46:15;6.63;;;4.00;;
13933;SDS011;7039;52.168;9.866;2023-07-08T00:49:01;5.87;;;3.87;;
13933;SDS011;7039;52.168;9.866;2023-07-08T00:51:39;5.53;;;3.70;;
13933;SDS011;7039;52.168;9.866;2023-07-08T00:54:05;6.87;;;3.70;;
13933;SDS011;7039;52.168;9.866;2023-07-08T00:56:37;8.43;;;4.40;;
13933;SDS011;7039;52.168;9.866;2023-07-08T00:59:09;6.83;;;4.00;;
13933;SDS011;7039;52.168;9.866;2023-07-08T01:02:26;5.20;;;4.00;;
13933;SDS011;7039;52.168;9.866;2023-07-08T01:04:55;5.00;;;4.00;;
13933;SDS011;7039;52.168;9.866;2023-07-08T01:07:24;5.77;;;4.00;;
13933;SDS011;7039;52.168;9.866;2023-07-08T01:09:52;8.17;;;4.10;;
13933;SDS011;7039;52.168;9.866;2023-07-08T01:12:24;7.90;;;4.30;;
13933;SDS011;7039;52.168;9.866;2023-07-08T01:14:54;5.20;;;4.00;;
13933;SDS011;7039;52.168;9.866;2023-07-08T01:34:23;5.67;;;3.40;;
13933;SDS011;7039;52.168;9.866;2023-07-08T01:36:51;6.93;;;3.87;;
13933;SDS011;7039;52.168;9.866;2023-07-08T01:39:21;6.83;;;3.77;;
13933;SDS011;7039;52.168;9.866;2023-07-08T01:48:57;6.80;;;4.10;;
13933;SDS011;7039;52.168;9.866;2023-07-08T01:51:28;5.63;;;3.60;;
13933;SDS011;7039;52.168;9.866;2023-07-08T01:53:55;6.90;;;3.67;;
13933;SDS011;7039;52.168;9.866;2023-07-08T01:56:21;8.70;;;3.70;;
13933;SDS011;7039;52.168;9.866;2023-07-08T01:58:48;3.93;;;3.53;;
13933;SDS011;7039;52.168;9.866;2023-07-08T02:01:14;6.03;;;4.17;;
13933;SDS011;7039;52.168;9.866;2023-07-08T02:03:41;6.63;;;3.80;;
13933;SDS011;7039;52.168;9.866;2023-07-08T02:06:07;8.50;;;3.50;;
13933;SDS011;7039;52.168;9.866;2023-07-08T02:11:51;5.33;;;3.77;;
13933;SDS011;7039;52.168;9.866;2023-07-08T02:14:18;9.60;;;4.27;;
13933;SDS011;7039;52.168;9.866;2023-07-08T02:16:44;8.80;;;3.70;;
13933;SDS011;7039;52.168;9.866;2023-07-08T02:19:11;5.47;;;3.60;;
13933;SDS011;7039;52.168;9.866;2023-07-08T02:21:37;7.40;;;3.50;;
13933;SDS011;7039;52.168;9.866;2023-07-08T02:24:04;5.63;;;3.83;;
13933;SDS011;7039;52.168;9.866;2023-07-08T02:26:31;7.93;;;4.00;;
13933;SDS011;7039;52.168;9.866;2023-07-08T02:28:59;5.07;;;3.90;;
13933;SDS011;7039;52.168;9.866;2023-07-08T02:31:26;6.63;;;4.00;;
13933;SDS011;7039;52.168;9.866;2023-07-08T02:33:53;7.00;;;4.53;;
13933;SDS011;7039;52.168;9.866;2023-07-08T02:36:20;9.77;;;4.57;;
13933;SDS011;7039;52.168;9.866;2023-07-08T02:38:47;5.70;;;4.00;;
13933;SDS011;7039;52.168;9.866;2023-07-08T02:41:13;7.70;;;4.43;;
13933;SDS011;7039;52.168;9.866;2023-07-08T02:43:40;6.00;;;3.50;;
13933;SDS011;7039;52.168;9.866;2023-07-08T02:49:48;6.67;;;3.93;;
13933;SDS011;7039;52.168;9.866;2023-07-08T02:52:51;4.80;;;3.60;;
13933;SDS011;7039;52.168;9.866;2023-07-08T02:55:17;10.40;;;4.13;;
13933;SDS011;7039;52.168;9.866;2023-07-08T02:57:44;13.17;;;7.93;;
13933;SDS011;7039;52.168;9.866;2023-07-08T03:00:11;10.23;;;6.47;;
13933;SDS011;7039;52.168;9.866;2023-07-08T03:02:38;7.57;;;5.40;;
13933;SDS011;7039;52.168;9.866;2023-07-08T03:05:06;4.90;;;3.90;;
13933;SDS011;7039;52.168;9.866;2023-07-08T03:07:33;7.20;;;4.43;;
13933;SDS011;7039;52.168;9.866;2023-07-08T03:10:00;11.03;;;5.13;;
13933;SDS011;7039;52.168;9.866;2023-07-08T03:12:26;9.07;;;4.13;;
13933;SDS011;7039;52.168;9.866;2023-07-08T03:14:53;4.60;;;3.87;;
13933;SDS011;7039;52.168;9.866;2023-07-08T03:21:19;11.17;;;4.60;;
13933;SDS011;7039;52.168;9.866;2023-07-08T03:23:50;6.17;;;3.80;;
13933;SDS011;7039;52.168;9.866;2023-07-08T03:26:34;6.73;;;3.70;;
13933;SDS011;7039;52.168;9.866;2023-07-08T03:29:01;7.03;;;3.83;;
13933;SDS011;7039;52.168;9.866;2023-07-08T03:31:28;9.27;;;4.30;;
13933;SDS011;7039;52.168;9.866;2023-07-08T03:33:55;7.03;;;4.10;;
13933;SDS011;7039;52.168;9.866;2023-07-08T03:36:22;7.20;;;4.40;;
13933;SDS011;7039;52.168;9.866;2023-07-08T03:38:49;7.43;;;4.83;;
13933;SDS011;7039;52.168;9.866;2023-07-08T03:41:17;14.03;;;4.10;;
13933;SDS011;7039;52.168;9.866;2023-07-08T03:43:44;5.83;;;4.23;;
13933;SDS011;7039;52.168;9.866;2023-07-08T03:50:13;10.07;;;3.80;;
13933;SDS011;7039;52.168;9.866;2023-07-08T03:52:45;7.47;;;3.90;;
13933;SDS011;7039;52.168;9.866;2023-07-08T03:55:12;5.70;;;3.90;;
13933;SDS011;7039;52.168;9.866;2023-07-08T03:57:39;8.97;;;3.83;;
13933;SDS011;7039;52.168;9.866;2023-07-08T04:00:07;7.77;;;4.40;;
13933;SDS011;7039;52.168;9.866;2023-07-08T04:02:37;6.20;;;4.30;;
13933;SDS011;7039;52.168;9.866;2023-07-08T04:05:03;9.27;;;3.97;;
13933;SDS011;7039;52.168;9.866;2023-07-08T04:07:31;8.63;;;4.30;;
13933;SDS011;7039;52.168;9.866;2023-07-08T04:09:59;9.37;;;4.63;;
13933;SDS011;7039;52.168;9.866;2023-07-08T04:12:26;7.10;;;4.07;;
13933;SDS011;7039;52.168;9.866;2023-07-08T04:18:51;5.17;;;3.97;;
13933;SDS011;7039;52.168;9.866;2023-07-08T04:21:38;6.63;;;4.07;;
13933;SDS011;7039;52.168;9.866;2023-07-08T04:24:04;8.77;;;4.50;;
13933;SDS011;7039;52.168;9.866;2023-07-08T04:26:32;10.03;;;4.40;;
13933;SDS011;7039;52.168;9.866;2023-07-08T04:29:03;7.70;;;4.33;;
13933;SDS011;7039;52.168;9.866;2023-07-08T04:32:27;10.67;;;4.57;;
13933;SDS011;7039;52.168;9.866;2023-07-08T04:35:35;9.90;;;5.03;;
13933;SDS011;7039;52.168;9.866;2023-07-08T04:38:04;6.73;;;4.17;;
13933;SDS011;7039;52.168;9.866;2023-07-08T04:40:34;7.87;;;4.83;;
13933;SDS011;7039;52.168;9.866;2023-07-08T04:43:03;8.90;;;5.23;;
13933;SDS011;7039;52.168;9.866;2023-07-08T04:45:29;7.40;;;5.10;;
13933;SDS011;7039;52.168;9.866;2023-07-08T04:51:34;8.50;;;5.30;;
13933;SDS011;7039;52.168;9.866;2023-07-08T04:57:01;9.50;;;5.50;;
13933;SDS011;7039;52.168;9.866;2023-07-08T04:59:48;8.57;;;5.37;;
13933;SDS011;7039;52.168;9.866;2023-07-08T05:02:51;7.30;;;4.80;;
13933;SDS011;7039;52.168;9.866;2023-07-08T05:05:19;13.00;;;5.37;;
13933;SDS011;7039;52.168;9.866;2023-07-08T05:07:45;11.77;;;5.30;;
13933;SDS011;7039;52.168;9.866;2023-07-08T05:10:13;14.90;;;5.60;;
13933;SDS011;7039;52.168;9.866;2023-07-08T05:12:40;11.53;;;5.73;;
13933;SDS011;7039;52.168;9.866;2023-07-08T05:15:18;7.77;;;6.30;;
13933;SDS011;7039;52.168;9.866;2023-07-08T05:17:44;11.17;;;5.50;;
13933;SDS011;7039;52.168;9.866;2023-07-08T05:20:12;7.83;;;5.10;;
13933;SDS011;7039;52.168;9.866;2023-07-08T05:22:40;10.53;;;5.63;;
13933;SDS011;7039;52.168;9.866;2023-07-08T05:25:35;6.37;;;5.57;;
13933;SDS011;7039;52.168;9.866;2023-07-08T05:28:07;8.90;;;6.40;;
13933;SDS011;7039;52.168;9.866;2023-07-08T05:30:36;10.33;;;5.20;;
13933;SDS011;7039;52.168;9.866;2023-07-08T05:33:02;14.37;;;4.97;;
13933;SDS011;7039;52.168;9.866;2023-07-08T05:35:29;7.90;;;5.80;;
13933;SDS011;7039;52.168;9.866;2023-07-08T05:37:55;9.13;;;5.93;;
13933;SDS011;7039;52.168;9.866;2023-07-08T05:40:21;12.90;;;6.73;;
13933;SDS011;7039;52.168;9.866;2023-07-08T05:42:48;10.33;;;6.73;;
13933;SDS011;7039;52.168;9.866;2023-07-08T05:45:15;10.10;;;6.30;;
13933;SDS011;7039;52.168;9.866;2023-07-08T05:47:43;8.73;;;6.60;;
13933;SDS011;7039;52.168;9.866;2023-07-08T05:50:09;11.33;;;5.83;;
13933;SDS011;7039;52.168;9.866;2023-07-08T05:52:36;9.17;;;5.23;;
13933;SDS011;7039;52.168;9.866;2023-07-08T05:55:04;10.63;;;6.07;;
13933;SDS011;7039;52.168;9.866;2023-07-08T05:57:31;9.80;;;5.87;;
13933;SDS011;7039;52.168;9.866;2023-07-08T05:59:57;9.53;;;5.30;;
13933;SDS011;7039;52.168;9.866;2023-07-08T06:02:24;10.77;;;5.70;;
13933;SDS011;7039;52.168;9.866;2023-07-08T06:04:53;9.30;;;5.57;;
13933;SDS011;7039;52.168;9.866;2023-07-08T06:07:20;6.60;;;4.90;;
13933;SDS011;7039;52.168;9.866;2023-07-08T06:09:47;6.50;;;5.10;;
13933;SDS011;7039;52.168;9.866;2023-07-08T06:12:13;10.60;;;5.87;;
13933;SDS011;7039;52.168;9.866;2023-07-08T06:14:40;5.90;;;4.83;;
13933;SDS011;7039;52.168;9.866;2023-07-08T06:17:06;11.93;;;7.33;;
13933;SDS011;7039;52.168;9.866;2023-07-08T06:19:33;10.30;;;5.50;;
13933;SDS011;7039;52.168;9.866;2023-07-08T06:22:01;7.43;;;5.17;;
13933;SDS011;7039;52.168;9.866;2023-07-08T06:24:27;10.23;;;5.33;;
13933;SDS011;7039;52.168;9.866;2023-07-08T06:26:54;12.60;;;6.20;;
13933;SDS011;7039;52.168;9.866;2023-07-08T06:29:20;10.57;;;5.93;;
13933;SDS011;7039;52.168;9.866;2023-07-08T06:31:47;11.03;;;5.80;;
13933;SDS011;7039;52.168;9.866;2023-07-08T06:34:13;8.10;;;6.00;;
13933;SDS011;7039;52.168;9.866;2023-07-08T06:36:39;9.23;;;6.03;;
13933;SDS011;7039;52.168;9.866;2023-07-08T06:39:07;16.13;;;7.13;;
13933;SDS011;7039;52.168;9.866;2023-07-08T06:41:36;5.87;;;5.03;;
13933;SDS011;7039;52.168;9.866;2023-07-08T06:44:02;8.57;;;6.03;;
13933;SDS011;7039;52.168;9.866;2023-07-08T06:46:29;11.30;;;5.57;;
13933;SDS011;7039;52.168;9.866;2023-07-08T06:48:56;11.90;;;5.93;;
13933;SDS011;7039;52.168;9.866;2023-07-08T06:51:22;7.43;;;5.67;;
13933;SDS011;7039;52.168;9.866;2023-07-08T06:53:49;9.20;;;5.67;;
13933;SDS011;7039;52.168;9.866;2023-07-08T06:56:16;9.53;;;5.70;;
13933;SDS011;7039;52.168;9.866;2023-07-08T06:58:43;9.27;;;5.40;;
13933;SDS011;7039;52.168;9.866;2023-07-08T07:01:09;10.13;;;5.07;;
13933;SDS011;7039;52.168;9.866;2023-07-08T07:03:36;7.03;;;5.43;;
13933;SDS011;7039;52.168;9.866;2023-07-08T07:06:02;8.73;;;6.20;;
13933;SDS011;7039;52.168;9.866;2023-07-08T07:08:29;6.30;;;4.67;;
13933;SDS011;7039;52.168;9.866;2023-07-08T07:10:55;6.93;;;5.30;;
13933;SDS011;7039;52.168;9.866;2023-07-08T07:13:23;8.20;;;5.27;;
13933;SDS011;7039;52.168;9.866;2023-07-08T07:15:50;7.87;;;5.40;;
13933;SDS011;7039;52.168;9.866;2023-07-08T07:18:16;7.87;;;6.07;;
13933;SDS011;7039;52.168;9.866;2023-07-08T07:20:47;6.23;;;4.93;;
13933;SDS011;7039;52.168;9.866;2023-07-08T07:23:15;10.33;;;6.27;;
13933;SDS011;7039;52.168;9.866;2023-07-08T07:25:42;8.20;;;5.50;;
13933;SDS011;7039;52.168;9.866;2023-07-08T07:28:09;6.23;;;5.37;;
13933;SDS011;7039;52.168;9.866;2023-07-08T07:30:37;10.00;;;5.70;;
13933;SDS011;7039;52.168;9.866;2023-07-08T07:33:03;11.20;;;5.00;;
13933;SDS011;7039;52.168;9.866;2023-07-08T07:35:30;9.00;;;5.43;;
13933;SDS011;7039;52.168;9.866;2023-07-08T07:37:56;8.83;;;5.23;;
13933;SDS011;7039;52.168;9.866;2023-07-08T07:40:23;6.67;;;4.53;;
13933;SDS011;7039;52.168;9.866;2023-07-08T07:42:49;6.77;;;5.20;;
13933;SDS011;7039;52.168;9.866;2023-07-08T07:45:16;6.00;;;4.87;;
13933;SDS011;7039;52.168;9.866;2023-07-08T07:47:44;5.17;;;4.50;;
13933;SDS011;7039;52.168;9.866;2023-07-08T07:50:10;5.50;;;4.67;;
13933;SDS011;7039;52.168;9.866;2023-07-08T07:52:37;7.30;;;4.43;;
13933;SDS011;7039;52.168;9.866;2023-07-08T07:55:03;8.47;;;4.63;;
13933;SDS011;7039;52.168;9.866;2023-07-08T07:57:30;5.82;;;4.57;;
13933;SDS011;7039;52.168;9.866;2023-07-08T07:59:57;10.00;;;5.50;;
13933;SDS011;7039;52.168;9.866;2023-07-08T08:02:23;8.00;;;4.90;;
13933;SDS011;7039;52.168;9.866;2023-07-08T08:04:51;8.00;;;4.68;;
13933;SDS011;7039;52.168;9.866;2023-07-08T08:07:18;8.75;;;5.13;;
13933;SDS011;7039;52.168;9.866;2023-07-08T08:09:44;6.73;;;4.70;;
13933;SDS011;7039;52.168;9.866;2023-07-08T08:12:10;6.88;;;4.63;;
13933;SDS011;7039;52.168;9.866;2023-07-08T08:14:37;9.90;;;4.90;;
13933;SDS011;7039;52.168;9.866;2023-07-08T08:17:05;9.13;;;5.20;;
13933;SDS011;7039;52.168;9.866;2023-07-08T08:19:31;8.55;;;5.10;;
13933;SDS011;7039;52.168;9.866;2023-07-08T08:21:59;7.38;;;4.65;;
13933;SDS011;7039;52.168;9.866;2023-07-08T08:24:26;9.57;;;4.70;;
13933;SDS011;7039;52.168;9.866;2023-07-08T08:26:52;6.18;;;5.10;;
13933;SDS011;7039;52.168;9.866;2023-07-08T08:29:19;5.68;;;4.68;;
13933;SDS011;7039;52.168;9.866;2023-07-08T08:31:45;6.20;;;4.63;;
13933;SDS011;7039;52.168;9.866;2023-07-08T08:34:12;11.57;;;4.97;;
13933;SDS011;7039;52.168;9.866;2023-07-08T08:36:38;11.55;;;4.65;;
13933;SDS011;7039;52.168;9.866;2023-07-08T08:39:06;10.02;;;4.95;;
13933;SDS011;7039;52.168;9.866;2023-07-08T08:41:33;5.43;;;4.40;;
13933;SDS011;7039;52.168;9.866;2023-07-08T08:44:01;11.30;;;4.70;;
13933;SDS011;7039;52.168;9.866;2023-07-08T08:46:32;6.20;;;4.72;;
13933;SDS011;7039;52.168;9.866;2023-07-08T08:49:05;9.85;;;4.63;;
13933;SDS011;7039;52.168;9.866;2023-07-08T08:51:40;7.63;;;4.68;;
13933;SDS011;7039;52.168;9.866;2023-07-08T08:54:08;7.20;;;4.97;;
13933;SDS011;7039;52.168;9.866;2023-07-08T08:56:38;11.65;;;5.30;;
13933;SDS011;7039;52.168;9.866;2023-07-08T08:59:11;6.65;;;4.53;;
13933;SDS011;7039;52.168;9.866;2023-07-08T09:01:48;10.95;;;6.10;;
13933;SDS011;7039;52.168;9.866;2023-07-08T09:04:17;6.15;;;5.20;;
13933;SDS011;7039;52.168;9.866;2023-07-08T09:06:48;9.18;;;5.22;;
13933;SDS011;7039;52.168;9.866;2023-07-08T09:09:20;7.80;;;4.63;;
13933;SDS011;7039;52.168;9.866;2023-07-08T09:11:53;8.93;;;4.72;;
13933;SDS011;7039;52.168;9.866;2023-07-08T09:14:26;9.18;;;4.97;;
13933;SDS011;7039;52.168;9.866;2023-07-08T09:16:57;5.80;;;5.28;;
13933;SDS011;7039;52.168;9.866;2023-07-08T09:19:32;7.05;;;4.90;;
13933;SDS011;7039;52.168;9.866;2023-07-08T09:22:02;5.20;;;4.65;;
13933;SDS011;7039;52.168;9.866;2023-07-08T09:24:40;6.80;;;5.40;;
13933;SDS011;7039;52.168;9.866;2023-07-08T09:27:09;7.78;;;4.72;;
13933;SDS011;7039;52.168;9.866;2023-07-08T09:29:36;7.95;;;4.93;;
13933;SDS011;7039;52.168;9.866;2023-07-08T09:32:11;6.95;;;5.50;;
13933;SDS011;7039;52.168;9.866;2023-07-08T09:34:43;6.15;;;4.80;;
13933;SDS011;7039;52.168;9.866;2023-07-08T09:40:03;10.00;;;5.22;;
13933;SDS011;7039;52.168;9.866;2023-07-08T09:42:40;5.80;;;5.20;;
13933;SDS011;7039;52.168;9.866;2023-07-08T09:45:11;6.60;;;4.90;;
13933;SDS011;7039;52.168;9.866;2023-07-08T09:47:39;9.73;;;5.13;;
13933;SDS011;7039;52.168;9.866;2023-07-08T09:50:16;6.60;;;5.53;;
13933;SDS011;7039;52.168;9.866;2023-07-08T09:52:45;6.72;;;5.32;;
13933;SDS011;7039;52.168;9.866;2023-07-08T09:55:14;10.35;;;5.53;;
13933;SDS011;7039;52.168;9.866;2023-07-08T09:57:41;9.10;;;5.75;;
13933;SDS011;7039;52.168;9.866;2023-07-08T10:00:11;13.07;;;5.60;;
13933;SDS011;7039;52.168;9.866;2023-07-08T10:02:41;6.80;;;4.97;;
13933;SDS011;7039;52.168;9.866;2023-07-08T10:05:14;8.77;;;5.45;;
13933;SDS011;7039;52.168;9.866;2023-07-08T10:07:45;6.95;;;5.35;;
13933;SDS011;7039;52.168;9.866;2023-07-08T10:10:15;6.28;;;4.95;;
13933;SDS011;7039;52.168;9.866;2023-07-08T10:12:46;8.80;;;5.43;;
13933;SDS011;7039;52.168;9.866;2023-07-08T10:15:22;8.82;;;5.55;;
13933;SDS011;7039;52.168;9.866;2023-07-08T10:17:54;7.35;;;5.40;;
13933;SDS011;7039;52.168;9.866;2023-07-08T10:20:21;10.65;;;5.60;;
13933;SDS011;7039;52.168;9.866;2023-07-08T10:22:56;11.85;;;5.82;;
13933;SDS011;7039;52.168;9.866;2023-07-08T10:25:34;8.30;;;5.85;;
13933;SDS011;7039;52.168;9.866;2023-07-08T10:28:10;10.25;;;6.07;;
13933;SDS011;7039;52.168;9.866;2023-07-08T10:31:10;7.43;;;5.75;;
13933;SDS011;7039;52.168;9.866;2023-07-08T10:33:52;10.93;;;5.65;;
13933;SDS011;7039;52.168;9.866;2023-07-08T10:36:30;12.93;;;5.78;;
13933;SDS011;7039;52.168;9.866;2023-07-08T10:39:14;8.32;;;6.57;;
13933;SDS011;7039;52.168;9.866;2023-07-08T10:42:03;9.63;;;6.50;;
13933;SDS011;7039;52.168;9.866;2023-07-08T10:44:52;7.72;;;5.78;;
13933;SDS011;7039;52.168;9.866;2023-07-08T10:47:28;12.23;;;6.53;;
13933;SDS011;7039;52.168;9.866;2023-07-08T10:50:11;7.68;;;6.45;;
13933;SDS011;7039;52.168;9.866;2023-07-08T10:52:53;8.60;;;6.20;;
13933;SDS011;7039;52.168;9.866;2023-07-08T10:55:28;10.65;;;6.25;;
13933;SDS011;7039;52.168;9.866;2023-07-08T10:58:13;15.77;;;6.30;;
13933;SDS011;7039;52.168;9.866;2023-07-08T11:00:57;14.82;;;7.53;;
13933;SDS011;7039;52.168;9.866;2023-07-08T11:03:42;22.42;;;8.57;;
13933;SDS011;7039;52.168;9.866;2023-07-08T11:06:39;8.60;;;5.85;;
13933;SDS011;7039;52.168;9.866;2023-07-08T11:09:12;9.07;;;5.22;;
13933;SDS011;7039;52.168;9.866;2023-07-08T11:11:42;5.38;;;4.90;;
13933;SDS011;7039;52.168;9.866;2023-07-08T11:14:17;6.25;;;5.20;;
13933;SDS011;7039;52.168;9.866;2023-07-08T11:16:51;5.72;;;4.72;;
13933;SDS011;7039;52.168;9.866;2023-07-08T11:19:24;7.43;;;5.30;;
13933;SDS011;7039;52.168;9.866;2023-07-08T11:21:57;9.02;;;4.80;;
13933;SDS011;7039;52.168;9.866;2023-07-08T11:24:28;7.72;;;4.25;;
13933;SDS011;7039;52.168;9.866;2023-07-08T11:27:05;7.78;;;4.80;;
13933;SDS011;7039;52.168;9.866;2023-07-08T11:29:41;4.72;;;4.32;;
13933;SDS011;7039;52.168;9.866;2023-07-08T11:32:11;5.18;;;4.68;;
13933;SDS011;7039;52.168;9.866;2023-07-08T11:34:42;6.75;;;4.60;;
13933;SDS011;7039;52.168;9.866;2023-07-08T11:37:12;7.65;;;5.18;;
13933;SDS011;7039;52.168;9.866;2023-07-08T11:39:41;5.82;;;5.00;;
13933;SDS011;7039;52.168;9.866;2023-07-08T11:42:14;11.00;;;5.07;;
13933;SDS011;7039;52.168;9.866;2023-07-08T11:44:47;5.75;;;4.75;;
13933;SDS011;7039;52.168;9.866;2023-07-08T11:47:20;5.40;;;4.85;;
13933;SDS011;7039;52.168;9.866;2023-07-08T11:49:50;6.88;;;5.07;;
13933;SDS011;7039;52.168;9.866;2023-07-08T11:52:20;11.77;;;5.30;;
13933;SDS011;7039;52.168;9.866;2023-07-08T11:54:48;6.68;;;5.25;;
13933;SDS011;7039;52.168;9.866;2023-07-08T11:57:24;10.43;;;5.72;;
13933;SDS011;7039;52.168;9.866;2023-07-08T12:02:49;5.90;;;5.30;;
13933;SDS011;7039;52.168;9.866;2023-07-08T12:05:18;5.80;;;5.10;;
13933;SDS011;7039;52.168;9.866;2023-07-08T12:07:56;7.40;;;5.32;;
13933;SDS011;7039;52.168;9.866;2023-07-08T12:10:26;6.45;;;5.25;;
13933;SDS011;7039;52.168;9.866;2023-07-08T12:12:54;6.25;;;5.13;;
13933;SDS011;7039;52.168;9.866;2023-07-08T12:15:23;8.25;;;5.43;;
13933;SDS011;7039;52.168;9.866;2023-07-08T12:17:52;6.15;;;5.55;;
13933;SDS011;7039;52.168;9.866;2023-07-08T12:20:22;8.38;;;5.22;;
13933;SDS011;7039;52.168;9.866;2023-07-08T12:22:50;6.10;;;5.47;;
13933;SDS011;7039;52.168;9.866;2023-07-08T12:25:17;5.18;;;4.68;;
13933;SDS011;7039;52.168;9.866;2023-07-08T12:27:46;6.25;;;5.65;;
13933;SDS011;7039;52.168;9.866;2023-07-08T12:30:13;5.78;;;5.18;;
13933;SDS011;7039;52.168;9.866;2023-07-08T12:32:42;8.50;;;5.20;;
13933;SDS011;7039;52.168;9.866;2023-07-08T12:35:15;6.38;;;5.72;;
13933;SDS011;7039;52.168;9.866;2023-07-08T12:37:47;5.88;;;5.28;;
13933;SDS011;7039;52.168;9.866;2023-07-08T12:40:13;7.43;;;5.22;;
13933;SDS011;7039;52.168;9.866;2023-07-08T12:42:40;7.25;;;5.60;;
13933;SDS011;7039;52.168;9.866;2023-07-08T12:45:12;8.77;;;5.22;;
13933;SDS011;7039;52.168;9.866;2023-07-08T12:47:42;7.20;;;5.28;;
13933;SDS011;7039;52.168;9.866;2023-07-08T12:50:09;5.53;;;5.03;;
13933;SDS011;7039;52.168;9.866;2023-07-08T12:52:36;5.22;;;4.72;;
13933;SDS011;7039;52.168;9.866;2023-07-08T12:55:03;9.35;;;5.22;;
13933;SDS011;7039;52.168;9.866;2023-07-08T12:57:30;6.38;;;5.13;;
13933;SDS011;7039;52.168;9.866;2023-07-08T12:59:57;5.47;;;4.97;;
13933;SDS011;7039;52.168;9.866;2023-07-08T13:02:24;5.57;;;5.07;;
13933;SDS011;7039;52.168;9.866;2023-07-08T13:04:56;8.13;;;5.38;;
13933;SDS011;7039;52.168;9.866;2023-07-08T13:14:52;5.88;;;5.28;;
13933;SDS011;7039;52.168;9.866;2023-07-08T13:17:21;5.93;;;5.43;;
13933;SDS011;7039;52.168;9.866;2023-07-08T13:19:48;6.93;;;4.95;;
13933;SDS011;7039;52.168;9.866;2023-07-08T13:22:17;7.40;;;5.10;;
13933;SDS011;7039;52.168;9.866;2023-07-08T13:24:45;8.48;;;5.60;;
13933;SDS011;7039;52.168;9.866;2023-07-08T13:27:14;5.45;;;4.97;;
13933;SDS011;7039;52.168;9.866;2023-07-08T13:29:47;5.80;;;5.20;;
13933;SDS011;7039;52.168;9.866;2023-07-08T13:32:14;11.20;;;5.20;;
13933;SDS011;7039;52.168;9.866;2023-07-08T13:34:41;8.90;;;5.32;;
13933;SDS011;7039;52.168;9.866;2023-07-08T13:37:09;6.13;;;4.88;;
13933;SDS011;7039;52.168;9.866;2023-07-08T13:39:42;6.93;;;5.72;;
13933;SDS011;7039;52.168;9.866;2023-07-08T13:42:10;6.25;;;5.30;;
13933;SDS011;7039;52.168;9.866;2023-07-08T13:44:41;5.90;;;4.95;;
13933;SDS011;7039;52.168;9.866;2023-07-08T13:47:18;7.88;;;5.18;;
13933;SDS011;7039;52.168;9.866;2023-07-08T13:49:47;5.97;;;5.32;;
13933;SDS011;7039;52.168;9.866;2023-07-08T13:52:20;11.02;;;5.25;;
13933;SDS011;7039;52.168;9.866;2023-07-08T13:54:50;6.03;;;5.28;;
13933;SDS011;7039;52.168;9.866;2023-07-08T13:57:19;9.02;;;5.43;;
13933;SDS011;7039;52.168;9.866;2023-07-08T13:59:48;6.20;;;5.60;;
13933;SDS011;7039;52.168;9.866;2023-07-08T14:02:16;5.93;;;5.32;;
13933;SDS011;7039;52.168;9.866;2023-07-08T14:04:48;5.70;;;5.10;;
13933;SDS011;7039;52.168;9.866;2023-07-08T14:07:17;8.13;;;5.60;;
13933;SDS011;7039;52.168;9.866;2023-07-08T14:09:45;5.55;;;5.00;;
13933;SDS011;7039;52.168;9.866;2023-07-08T14:12:13;7.68;;;5.50;;
13933;SDS011;7039;52.168;9.866;2023-07-08T14:14:40;5.82;;;5.25;;
13933;SDS011;7039;52.168;9.866;2023-07-08T14:17:08;6.32;;;4.93;;
13933;SDS011;7039;52.168;9.866;2023-07-08T14:19:37;6.55;;;5.65;;
13933;SDS011;7039;52.168;9.866;2023-07-08T14:22:09;7.15;;;5.65;;
13933;SDS011;7039;52.168;9.866;2023-07-08T14:24:51;5.47;;;5.07;;
13933;SDS011;7039;52.168;9.866;2023-07-08T14:27:19;7.72;;;5.40;;
13933;SDS011;7039;52.168;9.866;2023-07-08T14:29:46;7.72;;;5.28;;
13933;SDS011;7039;52.168;9.866;2023-07-08T14:32:16;7.72;;;5.57;;
13933;SDS011;7039;52.168;9.866;2023-07-08T14:34:48;8.10;;;5.45;;
13933;SDS011;7039;52.168;9.866;2023-07-08T14:37:17;8.98;;;5.28;;
13933;SDS011;7039;52.168;9.866;2023-07-08T14:39:44;5.78;;;5.28;;
13933;SDS011;7039;52.168;9.866;2023-07-08T14:42:10;5.60;;;5.10;;
13933;SDS011;7039;52.168;9.866;2023-07-08T14:44:40;5.93;;;5.43;;
13933;SDS011;7039;52.168;9.866;2023-07-08T14:47:08;5.30;;;4.80;;
13933;SDS011;7039;52.168;9.866;2023-07-08T14:49:36;5.78;;;5.28;;
13933;SDS011;7039;52.168;9.866;2023-07-08T14:52:03;5.53;;;5.03;;
13933;SDS011;7039;52.168;9.866;2023-07-08T14:54:31;5.95;;;5.40;;
13933;SDS011;7039;52.168;9.866;2023-07-08T14:56:57;5.60;;;4.93;;
13933;SDS011;7039;52.168;9.866;2023-07-08T14:59:25;8.25;;;5.70;;
13933;SDS011;7039;52.168;9.866;2023-07-08T15:01:55;5.55;;;5.10;;
13933;SDS011;7039;52.168;9.866;2023-07-08T15:04:24;9.30;;;4.78;;
13933;SDS011;7039;52.168;9.866;2023-07-08T15:06:50;6.30;;;4.70;;
13933;SDS011;7039;52.168;9.866;2023-07-08T15:09:18;5.40;;;4.90;;
13933;SDS011;7039;52.168;9.866;2023-07-08T15:11:45;5.32;;;4.82;;
13933;SDS011;7039;52.168;9.866;2023-07-08T15:14:14;6.82;;;4.93;;
13933;SDS011;7039;52.168;9.866;2023-07-08T15:16:44;5.55;;;5.05;;
13933;SDS011;7039;52.168;9.866;2023-07-08T15:19:12;5.53;;;5.03;;
13933;SDS011;7039;52.168;9.866;2023-07-08T15:21:39;6.00;;;5.10;;
13933;SDS011;7039;52.168;9.866;2023-07-08T15:24:08;6.13;;;5.13;;
13933;SDS011;7039;52.168;9.866;2023-07-08T15:26:37;6.07;;;5.30;;
13933;SDS011;7039;52.168;9.866;2023-07-08T15:29:04;5.93;;;5.28;;
13933;SDS011;7039;52.168;9.866;2023-07-08T15:31:32;6.15;;;5.32;;
13933;SDS011;7039;52.168;9.866;2023-07-08T15:34:00;5.13;;;4.60;;
13933;SDS011;7039;52.168;9.866;2023-07-08T15:36:27;8.50;;;5.07;;
13933;SDS011;7039;52.168;9.866;2023-07-08T15:38:54;8.38;;;5.28;;
13933;SDS011;7039;52.168;9.866;2023-07-08T15:41:21;6.00;;;5.50;;
13933;SDS011;7039;52.168;9.866;2023-07-08T15:43:53;5.70;;;5.20;;
13933;SDS011;7039;52.168;9.866;2023-07-08T15:46:21;5.75;;;4.70;;
13933;SDS011;7039;52.168;9.866;2023-07-08T15:48:48;8.30;;;5.30;;
13933;SDS011;7039;52.168;9.866;2023-07-08T15:51:15;6.50;;;4.78;;
13933;SDS011;7039;52.168;9.866;2023-07-08T15:53:44;9.35;;;4.95;;
13933;SDS011;7039;52.168;9.866;2023-07-08T15:56:11;5.35;;;4.88;;
13933;SDS011;7039;52.168;9.866;2023-07-08T15:58:40;6.20;;;5.25;;
13933;SDS011;7039;52.168;9.866;2023-07-08T16:01:10;6.68;;;5.47;;
13933;SDS011;7039;52.168;9.866;2023-07-08T16:03:42;9.73;;;4.90;;
13933;SDS011;7039;52.168;9.866;2023-07-08T16:06:09;5.05;;;4.65;;
13933;SDS011;7039;52.168;9.866;2023-07-08T16:08:35;7.10;;;5.63;;
13933;SDS011;7039;52.168;9.866;2023-07-08T16:11:04;6.07;;;5.07;;
13933;SDS011;7039;52.168;9.866;2023-07-08T16:13:37;5.45;;;4.95;;
13933;SDS011;7039;52.168;9.866;2023-07-08T16:16:08;5.60;;;5.10;;
13933;SDS011;7039;52.168;9.866;2023-07-08T16:18:36;6.00;;;5.13;;
13933;SDS011;7039;52.168;9.866;2023-07-08T16:21:03;5.78;;;5.22;;